Time;durP1;ratioP1;P1;durP2;ratioP2;P2;SDS_P1;SDS_P2;PMS_P1;PMS_P2;Temp;Humidity;BMP_temperature;BMP_pressure;BME280_temperature;BME280_humidity;BME280_pressure;Samples;Min_cycle;Max_cycle;Signal;HPM_P1;HPM_P2
2022/11/07 00:02:00;;;;;;;15.90;5.45;;;11.00;92.30;;;;;;5049243;28;20492;-73
2022/11/07 00:04:30;;;;;;;10.63;4.07;;;11.00;92.40;;;;;;5049642;28;20057;-76
2022/11/07 00:06:56;;;;;;;11.65;4.40;;;11.10;92.30;;;;;;5056513;28;20041;-73
2022/11/07 00:09:22;;;;;;;9.00;3.83;;;11.10;92.20;;;;;;5031014;28;20029;-71
2022/11/07 00:11:47;;;;;;;13.32;4.82;;;11.10;92.10;;;;;;5048587;28;20041;-74
2022/11/07 00:14:14;;;;;;;11.15;3.95;;;11.10;92.20;;;;;;5048405;28;20033;-73
2022/11/07 00:16:40;;;;;;;12.57;4.20;;;11.10;92.10;;;;;;5031281;28;20106;-73
2022/11/07 00:19:06;;;;;;;12.88;3.90;;;11.10;91.90;;;;;;5031456;28;20703;-74
2022/11/07 00:21:32;;;;;;;12.18;3.85;;;11.10;91.90;;;;;;5032182;28;20040;-73
2022/11/07 00:23:57;;;;;;;13.23;3.95;;;11.10;91.90;;;;;;5021835;28;20605;-73
2022/11/07 00:26:23;;;;;;;12.65;3.97;;;11.10;91.90;;;;;;5024252;28;20116;-73
2022/11/07 00:28:49;;;;;;;12.70;3.92;;;11.10;91.90;;;;;;5029496;28;20115;-75
2022/11/07 00:31:15;;;;;;;15.68;4.25;;;11.10;91.90;;;;;;5027351;28;20128;-74
2022/11/07 00:33:42;;;;;;;12.52;4.28;;;11.10;91.80;;;;;;5027645;28;20041;-73
2022/11/07 00:36:08;;;;;;;13.45;4.07;;;11.10;91.70;;;;;;5023005;28;20241;-73
2022/11/07 00:38:34;;;;;;;11.57;3.78;;;11.10;91.70;;;;;;5027929;28;20041;-73
2022/11/07 00:41:03;;;;;;;12.25;3.60;;;11.20;91.60;;;;;;5031111;28;20145;-74
2022/11/07 00:43:29;;;;;;;18.60;4.47;;;11.20;91.50;;;;;;5020965;28;20033;-73
2022/11/07 00:45:55;;;;;;;13.15;3.78;;;11.20;91.40;;;;;;5028131;28;20064;-74
2022/11/07 00:48:21;;;;;;;12.20;3.67;;;11.20;91.30;;;;;;5019975;28;20061;-73
2022/11/07 00:50:47;;;;;;;14.23;3.90;;;11.20;91.20;;;;;;5028814;28;20045;-75
2022/11/07 00:53:13;;;;;;;12.25;3.17;;;11.30;91.10;;;;;;5033265;28;20417;-74
2022/11/07 00:55:38;;;;;;;13.77;3.90;;;11.30;90.90;;;;;;5037065;28;20113;-73
2022/11/07 00:58:04;;;;;;;15.20;3.90;;;11.30;90.90;;;;;;5029238;28;20084;-73
2022/11/07 01:00:30;;;;;;;13.77;4.60;;;11.30;90.80;;;;;;5027192;28;20029;-72
2022/11/07 01:05:40;;;;;;;13.00;4.77;;;11.40;90.60;;;;;;5026878;28;20036;-74
2022/11/07 01:08:05;;;;;;;14.85;4.05;;;11.40;90.50;;;;;;5031774;28;20037;-73
2022/11/07 01:10:31;;;;;;;16.30;4.07;;;11.40;90.40;;;;;;5026298;28;20195;-73
2022/11/07 01:12:57;;;;;;;17.95;3.47;;;11.40;90.40;;;;;;5029218;28;20032;-73
2022/11/07 01:15:23;;;;;;;12.85;3.67;;;11.50;90.40;;;;;;5025061;28;20100;-73
2022/11/07 01:17:49;;;;;;;13.43;3.20;;;11.40;90.30;;;;;;5032539;28;20049;-74
2022/11/07 01:20:15;;;;;;;13.88;3.42;;;11.40;90.30;;;;;;5037519;28;20091;-72
2022/11/07 01:22:41;;;;;;;14.77;4.13;;;11.50;90.30;;;;;;5045196;28;20044;-74
2022/11/07 01:25:07;;;;;;;15.35;3.63;;;11.50;90.10;;;;;;5047290;28;20397;-76
2022/11/07 01:27:32;;;;;;;12.98;3.63;;;11.50;90.10;;;;;;5045556;28;20095;-73
2022/11/07 01:29:58;;;;;;;15.43;3.60;;;11.50;90.00;;;;;;5045849;28;20395;-76
2022/11/07 01:32:24;;;;;;;11.82;3.08;;;11.50;90.10;;;;;;5043613;28;20127;-81
2022/11/07 01:34:49;;;;;;;17.23;3.72;;;11.50;90.00;;;;;;5044814;28;20033;-72
2022/11/07 01:37:15;;;;;;;15.07;3.30;;;11.50;90.20;;;;;;5041749;28;20036;-77
2022/11/07 01:39:40;;;;;;;14.65;4.13;;;11.50;90.10;;;;;;5048990;28;20428;-72
2022/11/07 01:42:08;;;;;;;16.42;4.05;;;11.50;90.10;;;;;;5046424;28;20029;-78
2022/11/07 01:44:40;;;;;;;11.43;3.35;;;11.50;90.10;;;;;;5047069;28;20103;-73
2022/11/07 01:47:06;;;;;;;16.25;3.38;;;11.40;90.10;;;;;;5029399;28;20103;-73
2022/11/07 01:49:35;;;;;;;12.95;3.60;;;11.40;90.20;;;;;;5046713;28;20044;-74
2022/11/07 01:52:02;;;;;;;11.40;3.08;;;11.40;90.20;;;;;;5046902;28;20064;-73
2022/11/07 01:54:36;;;;;;;16.73;4.22;;;11.40;90.20;;;;;;5047348;28;20424;-73
2022/11/07 01:57:16;;;;;;;16.65;4.22;;;11.40;90.30;;;;;;5028377;28;20087;-73
2022/11/07 01:59:42;;;;;;;20.67;3.70;;;11.40;90.30;;;;;;5030388;28;20033;-72
2022/11/07 02:02:08;;;;;;;17.13;4.60;;;11.40;90.40;;;;;;5045220;28;20063;-73
2022/11/07 02:04:35;;;;;;;12.23;3.75;;;11.40;90.40;;;;;;5046606;28;20424;-73
2022/11/07 02:07:19;;;;;;;19.20;4.47;;;11.40;90.50;;;;;;5029512;28;20037;-74
2022/11/07 02:09:46;;;;;;;23.35;4.30;;;11.50;90.50;;;;;;5029105;28;20033;-73
2022/11/07 02:12:13;;;;;;;15.95;3.63;;;11.40;90.50;;;;;;5043247;28;20033;-73
2022/11/07 02:14:41;;;;;;;20.30;4.43;;;11.50;90.60;;;;;;5047034;28;21109;-77
2022/11/07 02:17:07;;;;;;;17.55;4.10;;;11.40;90.50;;;;;;5029070;28;20159;-78
2022/11/07 02:19:41;;;;;;;16.70;4.18;;;11.40;90.50;;;;;;5047412;28;20134;-73
2022/11/07 02:22:13;;;;;;;16.17;4.57;;;11.40;90.50;;;;;;5029529;28;20067;-77
2022/11/07 02:24:39;;;;;;;17.20;4.38;;;11.50;90.50;;;;;;5047733;28;20275;-73
2022/11/07 02:27:26;;;;;;;16.42;5.03;;;11.50;90.50;;;;;;5049985;28;20037;-74
2022/11/07 02:29:57;;;;;;;16.15;3.95;;;11.50;90.40;;;;;;5039146;28;20116;-77
2022/11/07 02:32:23;;;;;;;18.10;4.15;;;11.50;90.30;;;;;;5030716;28;20262;-73
2022/11/07 02:35:00;;;;;;;21.45;4.70;;;11.50;90.20;;;;;;5049642;28;20537;-77
2022/11/07 02:37:36;;;;;;;18.48;4.72;;;11.50;90.10;;;;;;5044728;28;20051;-79
2022/11/07 02:40:05;;;;;;;16.63;3.80;;;11.60;90.10;;;;;;5031357;28;20467;-73
2022/11/07 02:42:42;;;;;;;16.45;3.95;;;11.60;90.10;;;;;;5047282;28;20018;-75
2022/11/07 02:45:33;;;;;;;18.55;3.75;;;11.50;90.10;;;;;;5041886;28;20029;-77
2022/11/07 02:47:59;;;;;;;17.30;4.05;;;11.50;90.10;;;;;;5020770;28;20037;-74
2022/11/07 02:50:24;;;;;;;19.90;4.20;;;11.50;90.10;;;;;;5046209;28;20037;-73
2022/11/07 02:52:50;;;;;;;17.67;3.90;;;11.50;90.10;;;;;;5029407;28;20029;-74
2022/11/07 02:55:16;;;;;;;13.25;3.63;;;11.50;90.00;;;;;;5041891;28;20107;-75
2022/11/07 02:57:41;;;;;;;18.70;3.97;;;11.50;90.10;;;;;;5049766;28;20037;-74
2022/11/07 03:00:09;;;;;;;17.27;4.13;;;11.50;90.10;;;;;;5033699;28;20037;-73
2022/11/07 03:02:35;;;;;;;17.95;4.07;;;11.50;90.20;;;;;;5046959;28;20051;-72
2022/11/07 03:05:01;;;;;;;20.13;4.20;;;11.60;90.00;;;;;;5050148;28;20033;-74
2022/11/07 03:07:27;;;;;;;20.55;4.25;;;11.60;90.00;;;;;;5031717;28;20481;-73
2022/11/07 03:09:52;;;;;;;24.65;4.32;;;11.60;89.90;;;;;;5039993;28;20036;-73
2022/11/07 03:12:18;;;;;;;15.68;3.65;;;11.60;89.80;;;;;;5045268;28;20044;-72
2022/11/07 03:14:44;;;;;;;20.42;3.60;;;11.60;89.70;;;;;;5049958;28;20542;-73
2022/11/07 03:17:09;;;;;;;18.23;4.45;;;11.60;89.80;;;;;;5048709;28;20044;-72
2022/11/07 03:19:35;;;;;;;24.70;4.38;;;11.60;89.90;;;;;;5047038;28;20058;-72
2022/11/07 03:22:00;;;;;;;14.68;3.92;;;11.60;89.90;;;;;;5037184;28;20041;-73
2022/11/07 03:24:26;;;;;;;21.60;3.85;;;11.60;89.90;;;;;;5031552;28;20493;-73
2022/11/07 03:26:52;;;;;;;22.52;5.07;;;11.60;89.90;;;;;;5025257;28;20106;-72
2022/11/07 03:29:17;;;;;;;18.00;3.53;;;11.60;89.90;;;;;;5030277;28;20038;-75
2022/11/07 03:31:43;;;;;;;17.02;3.83;;;11.60;90.00;;;;;;5032473;28;20474;-73
2022/11/07 03:34:09;;;;;;;17.33;3.83;;;11.60;90.00;;;;;;5029102;28;20046;-74
2022/11/07 03:36:34;;;;;;;19.10;4.10;;;11.60;90.00;;;;;;5031534;28;20420;-72
2022/11/07 03:39:00;;;;;;;18.45;4.10;;;11.60;89.90;;;;;;5028302;28;20060;-72
2022/11/07 03:41:25;;;;;;;21.02;3.80;;;11.60;89.80;;;;;;5034933;28;20106;-72
2022/11/07 03:43:51;;;;;;;15.70;4.03;;;11.60;89.80;;;;;;5022513;28;20334;-76
2022/11/07 03:46:17;;;;;;;18.17;3.78;;;11.60;89.80;;;;;;5021645;28;20517;-77
2022/11/07 03:48:43;;;;;;;19.48;3.72;;;11.70;89.80;;;;;;5028631;28;20034;-75
2022/11/07 03:51:09;;;;;;;17.63;3.28;;;11.70;89.60;;;;;;5022586;28;20089;-72
2022/11/07 03:53:35;;;;;;;16.65;3.67;;;11.70;89.60;;;;;;5024529;28;20507;-73
2022/11/07 03:56:08;;;;;;;18.67;3.17;;;11.70;89.60;;;;;;5027102;28;20042;-74
2022/11/07 03:58:34;;;;;;;16.48;3.78;;;11.70;89.70;;;;;;5027054;28;20037;-73
2022/11/07 04:01:00;;;;;;;15.85;4.22;;;11.70;89.80;;;;;;5027734;28;20045;-74
2022/11/07 04:03:25;;;;;;;16.55;3.92;;;11.70;89.70;;;;;;5029129;28;20048;-73
2022/11/07 04:05:51;;;;;;;18.77;4.25;;;11.70;89.60;;;;;;5028694;28;20029;-74
2022/11/07 04:08:17;;;;;;;27.35;4.50;;;11.70;89.60;;;;;;5030067;28;20485;-73
2022/11/07 04:10:43;;;;;;;21.25;4.25;;;11.70;89.60;;;;;;5026158;28;20478;-74
2022/11/07 04:18:37;;;;;;;19.90;3.88;;;11.70;89.60;;;;;;5014207;28;20037;-73
2022/11/07 04:21:03;;;;;;;17.05;3.88;;;11.70;89.60;;;;;;5041186;28;20044;-73
2022/11/07 04:23:29;;;;;;;20.17;4.45;;;11.80;89.50;;;;;;5048860;28;20155;-73
2022/11/07 04:28:39;;;;;;;20.13;3.47;;;11.80;89.40;;;;;;5039575;28;20044;-73
2022/11/07 04:31:04;;;;;;;18.17;3.75;;;11.80;89.40;;;;;;5046069;28;20025;-73
2022/11/07 04:33:30;;;;;;;19.92;3.92;;;11.80;89.30;;;;;;5046978;28;20048;-78
2022/11/07 04:35:56;;;;;;;18.58;4.80;;;11.80;89.30;;;;;;5045855;28;20143;-74
2022/11/07 04:38:21;;;;;;;16.05;3.83;;;11.90;89.20;;;;;;5029244;28;20401;-73
2022/11/07 04:40:57;;;;;;;18.20;3.70;;;11.90;89.20;;;;;;5048854;28;20078;-72
2022/11/07 04:43:24;;;;;;;19.77;3.70;;;11.90;89.10;;;;;;5047455;28;20041;-74
2022/11/07 04:45:50;;;;;;;19.40;4.28;;;11.90;89.10;;;;;;5030627;28;20040;-72
2022/11/07 04:48:16;;;;;;;19.10;3.90;;;11.90;89.10;;;;;;5043300;28;20099;-80
2022/11/07 04:50:43;;;;;;;27.30;4.75;;;11.90;89.00;;;;;;5024354;28;20398;-77
2022/11/07 04:53:16;;;;;;;18.00;4.03;;;11.90;89.00;;;;;;5036477;28;20059;-77
2022/11/07 04:55:43;;;;;;;21.17;3.33;;;11.90;88.90;;;;;;5042767;28;20033;-82
2022/11/07 04:58:09;;;;;;;20.15;3.58;;;11.90;88.90;;;;;;5028016;28;20045;-73
2022/11/07 05:00:35;;;;;;;19.90;4.38;;;12.00;88.90;;;;;;5027216;28;20394;-77
2022/11/07 05:03:00;;;;;;;15.48;3.55;;;11.90;88.80;;;;;;5047119;28;20049;-74
2022/11/07 05:05:26;;;;;;;15.15;3.58;;;11.90;88.80;;;;;;5046264;28;20025;-74
2022/11/07 05:07:52;;;;;;;16.25;3.42;;;11.90;88.90;;;;;;5030568;28;20140;-73
2022/11/07 05:10:23;;;;;;;19.73;4.28;;;12.00;88.80;;;;;;5041846;28;20078;-73
2022/11/07 05:12:49;;;;;;;18.90;3.72;;;12.00;88.70;;;;;;5027561;28;20033;-84
2022/11/07 05:15:16;;;;;;;18.73;3.95;;;12.00;88.70;;;;;;5028812;28;20025;-72
2022/11/07 05:17:42;;;;;;;17.60;4.45;;;12.00;88.70;;;;;;5019742;28;20041;-73
2022/11/07 05:20:26;;;;;;;16.77;4.60;;;12.00;88.80;;;;;;5045876;28;20064;-74
2022/11/07 05:25:35;;;;;;;16.63;3.80;;;12.10;88.90;;;;;;5043524;28;20045;-79
2022/11/07 05:28:01;;;;;;;15.82;4.40;;;12.10;88.90;;;;;;5039412;28;20279;-73
2022/11/07 05:30:27;;;;;;;20.10;4.50;;;12.10;88.90;;;;;;5037586;28;20064;-74
2022/11/07 05:32:52;;;;;;;22.27;5.63;;;12.00;88.90;;;;;;5027452;28;20450;-73
2022/11/07 05:35:18;;;;;;;20.45;4.80;;;12.10;88.90;;;;;;5038143;28;20120;-74
2022/11/07 05:37:43;;;;;;;17.38;5.32;;;12.10;88.90;;;;;;5042808;28;20040;-74
2022/11/07 05:40:10;;;;;;;16.48;3.63;;;12.10;89.00;;;;;;5027780;28;20025;-74
2022/11/07 05:42:35;;;;;;;18.70;4.32;;;12.10;89.10;;;;;;5028148;28;20460;-81
2022/11/07 05:45:01;;;;;;;19.40;4.25;;;12.10;89.10;;;;;;5037197;28;20122;-75
2022/11/07 05:47:26;;;;;;;20.08;4.20;;;12.00;89.10;;;;;;5034778;28;20061;-74
2022/11/07 05:49:52;;;;;;;22.20;5.05;;;12.10;89.20;;;;;;5046487;28;20029;-73
2022/11/07 05:52:18;;;;;;;17.75;4.25;;;12.10;89.10;;;;;;5034673;28;20330;-73
2022/11/07 05:54:43;;;;;;;16.40;4.25;;;12.10;89.20;;;;;;5043613;28;20033;-75
2022/11/07 05:57:09;;;;;;;15.73;4.15;;;12.10;89.10;;;;;;5038860;28;20065;-72
2022/11/07 05:59:34;;;;;;;22.13;4.95;;;12.10;89.20;;;;;;5041592;28;20056;-72
2022/11/07 06:02:00;;;;;;;17.83;4.43;;;12.10;89.10;;;;;;5037810;28;20029;-74
2022/11/07 06:04:25;;;;;;;13.45;3.30;;;12.10;89.10;;;;;;5038945;28;20779;-74
2022/11/07 06:06:51;;;;;;;16.67;4.25;;;12.10;89.10;;;;;;5027757;28;20046;-74
2022/11/07 06:09:16;;;;;;;15.02;3.83;;;12.10;89.20;;;;;;5034531;28;20025;-75
2022/11/07 06:11:42;;;;;;;21.35;4.40;;;12.10;89.10;;;;;;5038274;28;20371;-81
2022/11/07 06:14:08;;;;;;;16.75;4.47;;;12.10;89.10;;;;;;5034742;28;20115;-73
2022/11/07 06:16:33;;;;;;;15.80;4.22;;;12.10;89.10;;;;;;5038258;28;20341;-78
2022/11/07 06:18:59;;;;;;;15.55;4.20;;;12.20;89.00;;;;;;5024877;28;20040;-76
2022/11/07 06:21:25;;;;;;;15.13;3.55;;;12.20;88.90;;;;;;5024404;28;20057;-75
2022/11/07 06:23:50;;;;;;;16.70;3.83;;;12.20;88.80;;;;;;5035828;28;20044;-76
2022/11/07 06:26:16;;;;;;;18.25;4.82;;;12.20;88.70;;;;;;5025944;28;20033;-81
2022/11/07 06:28:41;;;;;;;18.65;3.95;;;12.30;88.60;;;;;;5043315;28;20124;-77
2022/11/07 06:31:07;;;;;;;16.20;4.03;;;12.30;88.70;;;;;;5026960;28;20067;-73
2022/11/07 06:33:33;;;;;;;18.40;4.25;;;12.30;88.70;;;;;;5043212;28;20029;-73
2022/11/07 06:36:07;;;;;;;15.13;3.83;;;12.30;88.60;;;;;;5046849;28;20040;-73
2022/11/07 06:38:33;;;;;;;16.50;4.75;;;12.30;88.80;;;;;;5048184;28;20025;-77
2022/11/07 06:41:13;;;;;;;13.60;4.07;;;12.30;88.80;;;;;;5046723;28;20037;-74
2022/11/07 06:43:39;;;;;;;21.20;4.00;;;12.30;88.90;;;;;;5040726;28;20094;-73
2022/11/07 06:46:07;;;;;;;15.45;3.97;;;12.30;88.90;;;;;;5031557;28;20029;-72
2022/11/07 06:48:33;;;;;;;17.15;3.60;;;12.30;88.80;;;;;;5048690;28;20091;-73
2022/11/07 06:51:00;;;;;;;19.77;4.45;;;12.20;88.80;;;;;;5049220;28;20033;-74
2022/11/07 06:53:26;;;;;;;18.05;3.80;;;12.20;88.90;;;;;;5045474;28;20034;-77
2022/11/07 06:55:52;;;;;;;12.10;3.88;;;12.10;89.10;;;;;;5050165;28;20033;-74
2022/11/07 06:58:18;;;;;;;23.60;4.40;;;12.10;89.10;;;;;;5057136;28;20148;-73
2022/11/07 07:00:44;;;;;;;17.00;4.10;;;12.20;89.10;;;;;;5031679;28;20041;-73
2022/11/07 07:03:10;;;;;;;15.30;3.65;;;12.20;89.10;;;;;;5048864;28;20504;-73
2022/11/07 07:05:36;;;;;;;19.02;3.80;;;12.20;89.20;;;;;;5050286;28;20508;-75
2022/11/07 07:08:04;;;;;;;16.58;4.10;;;12.20;89.30;;;;;;5045142;28;20273;-74
2022/11/07 07:10:30;;;;;;;20.35;4.78;;;12.20;89.30;;;;;;5044698;28;20025;-75
2022/11/07 07:12:58;;;;;;;20.77;4.50;;;12.20;89.30;;;;;;5029355;28;20037;-81
2022/11/07 07:15:24;;;;;;;19.90;4.43;;;12.20;89.30;;;;;;5051366;28;20509;-76
2022/11/07 07:17:50;;;;;;;18.67;4.43;;;12.30;89.20;;;;;;5048752;28;20124;-74
2022/11/07 07:20:15;;;;;;;11.70;3.47;;;12.40;89.20;;;;;;5031857;28;20053;-73
2022/11/07 07:22:43;;;;;;;19.05;4.85;;;12.40;89.00;;;;;;5048733;28;20059;-74
2022/11/07 07:25:10;;;;;;;18.48;5.18;;;12.40;89.00;;;;;;5021147;28;20381;-73
2022/11/07 07:27:36;;;;;;;17.73;4.35;;;12.50;88.90;;;;;;5031380;28;20298;-74
2022/11/07 07:30:01;;;;;;;19.40;5.03;;;12.40;88.80;;;;;;5032495;28;20036;-74
2022/11/07 07:32:27;;;;;;;18.63;5.03;;;12.50;88.90;;;;;;5036690;28;20041;-83
2022/11/07 07:34:53;;;;;;;17.88;5.30;;;12.50;88.90;;;;;;5037743;28;20450;-73
2022/11/07 07:37:19;;;;;;;20.38;4.40;;;12.50;88.90;;;;;;5048415;28;20528;-81
2022/11/07 07:39:44;;;;;;;19.77;4.38;;;12.60;88.80;;;;;;5051516;28;20559;-73
2022/11/07 07:42:10;;;;;;;19.10;7.13;;;12.60;88.60;;;;;;5030543;28;20036;-73
2022/11/07 07:44:35;;;;;;;23.77;6.53;;;12.60;88.60;;;;;;5049721;28;20332;-73
2022/11/07 07:47:01;;;;;;;21.88;5.20;;;12.60;88.50;;;;;;5030875;28;20084;-75
2022/11/07 07:49:27;;;;;;;21.77;5.03;;;12.60;88.50;;;;;;5050580;28;20025;-78
2022/11/07 07:51:53;;;;;;;21.83;5.13;;;12.70;88.50;;;;;;5031463;28;20032;-73
2022/11/07 07:54:19;;;;;;;17.45;4.10;;;12.70;88.40;;;;;;5030611;28;20044;-73
2022/11/07 07:56:44;;;;;;;18.52;3.80;;;12.80;88.20;;;;;;5031894;28;20068;-73
2022/11/07 07:59:10;;;;;;;16.98;3.88;;;12.80;88.10;;;;;;5031765;28;20057;-73
2022/11/07 08:01:35;;;;;;;19.70;5.10;;;12.90;88.00;;;;;;5032733;28;20036;-76
2022/11/07 08:04:01;;;;;;;17.25;4.00;;;12.90;88.00;;;;;;5031840;28;20056;-74
2022/11/07 08:06:27;;;;;;;20.50;4.85;;;12.90;87.90;;;;;;5042856;28;20029;-74
2022/11/07 08:08:53;;;;;;;18.95;4.22;;;13.00;87.70;;;;;;5049859;28;20140;-74
2022/11/07 08:11:18;;;;;;;16.38;3.80;;;13.00;87.70;;;;;;5034887;28;20086;-73
2022/11/07 08:13:44;;;;;;;16.20;4.07;;;13.00;87.60;;;;;;5039543;28;20045;-75
2022/11/07 08:16:09;;;;;;;16.75;4.10;;;13.10;87.70;;;;;;5027236;28;20492;-76
2022/11/07 08:18:35;;;;;;;19.65;3.75;;;13.10;87.60;;;;;;5029357;28;20041;-73
2022/11/07 08:21:01;;;;;;;16.38;3.78;;;13.10;87.40;;;;;;5034687;28;20045;-74
2022/11/07 08:23:27;;;;;;;19.98;4.43;;;13.10;87.50;;;;;;5047630;28;20043;-73
2022/11/07 08:25:55;;;;;;;14.15;4.20;;;13.20;87.50;;;;;;5048898;28;20033;-75
2022/11/07 08:28:23;;;;;;;18.08;4.35;;;13.30;87.40;;;;;;5026859;28;20033;-72
2022/11/07 08:30:59;;;;;;;19.33;3.95;;;13.40;87.10;;;;;;5045510;28;20116;-72
2022/11/07 08:33:25;;;;;;;17.60;4.65;;;13.40;86.90;;;;;;5021883;28;20083;-71
2022/11/07 08:35:54;;;;;;;19.25;3.95;;;13.50;86.40;;;;;;5046029;28;20065;-74
2022/11/07 08:38:20;;;;;;;16.58;4.53;;;13.60;86.20;;;;;;5044198;28;20049;-73
2022/11/07 08:40:45;;;;;;;19.40;4.22;;;13.70;86.10;;;;;;5031056;28;20101;-74
2022/11/07 08:43:11;;;;;;;20.70;4.30;;;13.80;85.90;;;;;;5048676;28;20075;-75
2022/11/07 08:45:37;;;;;;;25.77;5.55;;;14.00;85.10;;;;;;5043322;28;20034;-77
2022/11/07 08:48:03;;;;;;;16.67;5.57;;;14.10;84.60;;;;;;5043200;28;20443;-77
2022/11/07 08:50:29;;;;;;;14.93;4.07;;;14.10;84.50;;;;;;5029120;28;20129;-73
2022/11/07 08:52:55;;;;;;;19.08;4.28;;;14.10;84.30;;;;;;5027501;28;20543;-74
2022/11/07 08:55:20;;;;;;;18.23;4.10;;;14.20;83.90;;;;;;5029474;28;20112;-78
2022/11/07 08:57:46;;;;;;;16.85;4.20;;;14.30;83.70;;;;;;5035258;28;20033;-75
2022/11/07 09:00:12;;;;;;;17.27;3.95;;;14.20;83.50;;;;;;5016505;28;20061;-74
2022/11/07 09:02:38;;;;;;;14.13;3.80;;;14.40;83.80;;;;;;5025330;28;20043;-77
2022/11/07 09:05:03;;;;;;;16.10;3.83;;;14.40;83.60;;;;;;5023598;28;20034;-77
2022/11/07 09:07:29;;;;;;;16.00;4.32;;;14.50;83.50;;;;;;5027727;28;20045;-73
2022/11/07 09:09:55;;;;;;;17.45;4.00;;;14.40;83.10;;;;;;5052655;28;20373;-76
2022/11/07 09:12:20;;;;;;;19.48;4.15;;;14.40;83.10;;;;;;5040674;28;20466;-77
2022/11/07 09:14:46;;;;;;;14.10;3.72;;;14.30;83.50;;;;;;5043244;28;20112;-77
2022/11/07 09:17:11;;;;;;;19.95;4.35;;;14.30;83.50;;;;;;5026049;28;20079;-74
2022/11/07 09:19:37;;;;;;;19.92;4.30;;;14.30;83.60;;;;;;5037931;28;20128;-75
2022/11/07 09:22:03;;;;;;;20.80;4.85;;;14.30;83.60;;;;;;5024900;28;20528;-74
2022/11/07 09:24:28;;;;;;;18.13;3.63;;;14.30;83.60;;;;;;5042094;28;20420;-75
2022/11/07 09:26:54;;;;;;;17.00;3.95;;;14.30;83.80;;;;;;5030951;28;20589;-80
2022/11/07 09:29:20;;;;;;;17.92;3.85;;;14.40;84.10;;;;;;5030815;28;20326;-75
2022/11/07 09:31:45;;;;;;;18.55;4.05;;;14.50;83.50;;;;;;5045561;28;20930;-76
2022/11/07 09:34:11;;;;;;;16.70;4.05;;;14.60;83.20;;;;;;5047698;28;20025;-74
2022/11/07 09:36:37;;;;;;;18.08;3.50;;;14.70;83.10;;;;;;5027786;28;20059;-74
2022/11/07 09:39:02;;;;;;;20.38;4.25;;;14.70;82.40;;;;;;5046093;28;20468;-77
2022/11/07 09:42:08;;;;;;;18.88;3.75;;;14.70;82.40;;;;;;5047827;28;20362;-80
2022/11/07 09:44:52;;;;;;;19.38;4.00;;;14.70;82.60;;;;;;5038994;28;20026;-81
2022/11/07 09:47:22;;;;;;;19.80;3.85;;;14.70;82.80;;;;;;5027840;28;20049;-82
2022/11/07 09:49:50;;;;;;;14.43;3.67;;;14.70;82.90;;;;;;5048179;28;20040;-82
2022/11/07 09:52:37;;;;;;;20.17;4.07;;;14.70;82.60;;;;;;5046312;28;20029;-81
2022/11/07 09:55:21;;;;;;;12.93;3.97;;;14.70;82.50;;;;;;5046474;28;20036;-82
2022/11/07 09:57:48;;;;;;;15.18;3.75;;;14.80;82.50;;;;;;5035854;28;20496;-82
2022/11/07 10:00:19;;;;;;;14.93;3.65;;;14.80;82.30;;;;;;5047843;28;20477;-81
2022/11/07 10:02:57;;;;;;;20.40;3.63;;;14.80;82.20;;;;;;5043839;28;20033;-82
2022/11/07 10:06:01;;;;;;;15.02;3.58;;;14.90;82.00;;;;;;5040185;28;20392;-82
2022/11/07 10:08:32;;;;;;;17.83;4.03;;;15.10;81.80;;;;;;5027345;28;20523;-82
2022/11/07 10:11:02;;;;;;;15.90;3.72;;;15.10;81.50;;;;;;5030847;28;20366;-82
2022/11/07 10:13:56;;;;;;;13.57;4.00;;;15.20;81.20;;;;;;5015648;28;21055;-81
2022/11/07 10:16:46;;;;;;;16.75;4.15;;;15.30;81.20;;;;;;5032342;28;20048;-80
2022/11/07 10:19:19;;;;;;;15.82;3.53;;;15.40;80.50;;;;;;5056055;28;20024;-79
2022/11/07 10:22:10;;;;;;;14.48;3.53;;;15.50;80.50;;;;;;5031171;28;20333;-79
2022/11/07 10:24:46;;;;;;;18.23;3.67;;;15.50;80.30;;;;;;5036966;28;20033;-80
2022/11/07 10:27:12;;;;;;;16.08;3.72;;;15.50;80.50;;;;;;5011350;28;20053;-81
2022/11/07 10:29:41;;;;;;;17.85;3.17;;;15.50;80.30;;;;;;5016664;28;20490;-80
2022/11/07 10:32:09;;;;;;;14.68;3.67;;;15.50;80.10;;;;;;5020434;28;20044;-80
2022/11/07 10:34:46;;;;;;;15.98;4.63;;;15.50;80.30;;;;;;5034257;28;20041;-80
2022/11/07 10:37:12;;;;;;;21.60;4.03;;;15.60;79.80;;;;;;5027494;28;20043;-80
2022/11/07 10:39:37;;;;;;;17.02;3.60;;;15.60;79.90;;;;;;5021236;28;20488;-80
2022/11/07 10:42:08;;;;;;;16.33;3.53;;;15.60;79.60;;;;;;5033817;28;20608;-80
2022/11/07 10:44:34;;;;;;;14.00;3.47;;;15.50;79.60;;;;;;5033701;28;20040;-80
2022/11/07 10:47:02;;;;;;;14.35;4.10;;;15.50;79.80;;;;;;5030726;28;20053;-80
2022/11/07 10:49:30;;;;;;;20.27;3.92;;;15.50;80.20;;;;;;5033466;28;20052;-79
2022/11/07 10:52:15;;;;;;;18.83;4.25;;;15.40;80.30;;;;;;5020253;28;20048;-80
2022/11/07 10:54:43;;;;;;;20.10;4.95;;;15.40;80.20;;;;;;5041387;28;20389;-80
2022/11/07 10:57:12;;;;;;;17.30;5.00;;;15.30;80.50;;;;;;5040913;28;20584;-80
2022/11/07 11:00:06;;;;;;;16.88;4.22;;;15.30;80.70;;;;;;5043170;28;20473;-79
2022/11/07 11:02:48;;;;;;;15.05;4.22;;;15.30;80.90;;;;;;5037101;28;20061;-79
2022/11/07 11:05:46;;;;;;;17.70;4.22;;;15.20;81.00;;;;;;5037948;28;20041;-79
2022/11/07 11:08:20;;;;;;;16.08;3.53;;;15.20;81.00;;;;;;5031795;28;20056;-79
2022/11/07 11:10:47;;;;;;;16.45;3.80;;;15.10;80.90;;;;;;5043932;28;20025;-79
2022/11/07 11:13:30;;;;;;;12.02;3.15;;;15.10;81.00;;;;;;5020274;28;20492;-77
2022/11/07 11:16:00;;;;;;;13.30;3.50;;;15.10;81.20;;;;;;5040062;28;20440;-78
2022/11/07 11:18:25;;;;;;;15.63;3.75;;;15.10;81.50;;;;;;5044749;28;20044;-78
2022/11/07 11:20:56;;;;;;;14.68;3.42;;;15.10;81.30;;;;;;5045663;28;20400;-77
2022/11/07 11:23:28;;;;;;;15.10;3.55;;;15.20;81.10;;;;;;5037571;28;20033;-76
2022/11/07 11:26:07;;;;;;;15.23;3.00;;;15.20;81.00;;;;;;5050007;28;20037;-78
2022/11/07 11:28:42;;;;;;;16.52;3.70;;;15.20;81.30;;;;;;5047608;28;20033;-78
2022/11/07 11:31:17;;;;;;;12.68;3.85;;;15.20;81.30;;;;;;5048132;28;20076;-78
2022/11/07 11:34:07;;;;;;;12.70;3.45;;;15.20;81.40;;;;;;5050424;28;20040;-78
2022/11/07 11:36:39;;;;;;;16.70;3.42;;;15.30;81.10;;;;;;5032134;28;20520;-78
2022/11/07 11:39:25;;;;;;;15.02;3.60;;;15.40;81.10;;;;;;5027099;28;20397;-79
2022/11/07 11:41:54;;;;;;;15.27;3.80;;;15.40;80.90;;;;;;5049535;28;20033;-77
2022/11/07 11:44:26;;;;;;;12.75;4.03;;;15.30;81.10;;;;;;5049122;28;20054;-77
2022/11/07 11:47:03;;;;;;;17.67;5.03;;;15.40;81.00;;;;;;5030760;28;20041;-77
2022/11/07 11:49:49;;;;;;;19.67;4.10;;;15.40;81.10;;;;;;5032203;28;20036;-78
2022/11/07 11:52:22;;;;;;;17.27;5.10;;;15.40;81.10;;;;;;5053765;28;20029;-79
2022/11/07 11:54:53;;;;;;;20.45;7.05;;;15.40;81.10;;;;;;5035573;28;20079;-80
2022/11/07 11:57:34;;;;;;;21.10;5.63;;;15.40;81.10;;;;;;5047553;28;20111;-79
2022/11/07 12:00:15;;;;;;;21.33;7.82;;;15.40;81.10;;;;;;5049461;28;20044;-79
2022/11/07 12:02:53;;;;;;;18.98;5.40;;;15.50;81.00;;;;;;5024453;28;20044;-80
2022/11/07 12:05:38;;;;;;;18.95;7.07;;;15.50;80.80;;;;;;5025882;28;20494;-80
2022/11/07 12:08:27;;;;;;;15.77;4.80;;;15.50;80.80;;;;;;5047129;28;20095;-79
2022/11/07 12:11:19;;;;;;;19.23;7.13;;;15.50;80.90;;;;;;5048611;28;20029;-79
2022/11/07 12:14:31;;;;;;;18.77;5.10;;;15.60;81.40;;;;;;5026719;28;20033;-80
2022/11/07 12:17:27;;;;;;;29.48;14.23;;;15.50;81.50;;;;;;4951433;28;20507;-81
2022/11/07 12:20:15;;;;;;;28.27;16.38;;;15.50;81.50;;;;;;5031055;28;20519;-79
2022/11/07 12:23:16;;;;;;;47.70;27.13;;;15.50;81.60;;;;;;5043326;28;20064;-80
2022/11/07 12:25:52;;;;;;;21.15;10.43;;;15.60;81.60;;;;;;4991455;28;20033;-79
2022/11/07 12:28:44;;;;;;;24.85;12.35;;;15.60;81.10;;;;;;5048344;28;20041;-78
2022/11/07 12:31:24;;;;;;;21.70;11.25;;;15.60;81.00;;;;;;5006707;28;20036;-80
2022/11/07 12:34:06;;;;;;;19.67;8.80;;;15.60;81.10;;;;;;5029702;28;20087;-79
2022/11/07 12:37:08;;;;;;;25.23;13.27;;;15.60;80.80;;;;;;5048745;28;20507;-79
2022/11/07 12:40:13;;;;;;;13.60;4.32;;;15.70;80.80;;;;;;5030474;28;20029;-79
2022/11/07 12:43:13;;;;;;;27.42;13.18;;;15.70;81.10;;;;;;5030526;28;20037;-79
2022/11/07 12:45:57;;;;;;;17.67;7.50;;;15.80;81.20;;;;;;5030100;28;20481;-77
2022/11/07 12:48:36;;;;;;;14.55;4.07;;;15.70;81.30;;;;;;5048069;28;20111;-75
2022/11/07 12:51:24;;;;;;;14.77;4.80;;;15.70;81.30;;;;;;5021957;28;20041;-76
2022/11/07 12:54:19;;;;;;;16.83;6.80;;;15.70;81.20;;;;;;5025154;28;20044;-77
2022/11/07 12:56:46;;;;;;;16.58;5.38;;;15.80;81.80;;;;;;5045131;28;20037;-76
2022/11/07 12:59:27;;;;;;;21.35;4.68;;;15.70;81.90;;;;;;5030815;28;20048;-74
2022/11/07 13:02:03;;;;;;;12.48;4.07;;;15.70;81.60;;;;;;5030736;28;20116;-81
2022/11/07 13:04:40;;;;;;;16.35;5.18;;;15.60;81.80;;;;;;5047846;28;20087;-77